Time;durP1;ratioP1;P1;durP2;ratioP2;P2;SDS_P1;SDS_P2;PMS_P1;PMS_P2;Temp;Humidity;BMP_temperature;BMP_pressure;BME280_temperature;BME280_humidity;BME280_pressure;Samples;Min_cycle;Max_cycle;Signal;HPM_P1;HPM_P2
2020/12/31 00:01:27;;;;;;;15.50;7.50;;;;;;;4.44;100.00;99880.09;4951513;28;20116;-72
2020/12/31 00:03:53;;;;;;;16.23;8.05;;;;;;;4.41;100.00;99873.13;4968928;28;20038;-72
2020/12/31 00:06:19;;;;;;;14.93;6.95;;;;;;;4.44;100.00;99877.44;4968125;28;20038;-71
2020/12/31 00:08:45;;;;;;;15.98;7.68;;;;;;;4.52;100.00;99877.88;4941395;28;20093;-72
2020/12/31 00:11:11;;;;;;;13.25;7.88;;;;;;;4.41;100.00;99869.59;4962321;28;20086;-72
2020/12/31 00:13:37;;;;;;;17.75;8.43;;;;;;;4.38;100.00;99867.13;4967652;28;20030;-72
2020/12/31 00:16:03;;;;;;;17.63;8.38;;;;;;;4.38;100.00;99867.13;4968899;28;20037;-72
2020/12/31 00:18:29;;;;;;;15.85;9.25;;;;;;;4.43;100.00;99854.44;4969513;28;20035;-72
2020/12/31 00:20:54;;;;;;;17.60;8.85;;;;;;;4.38;100.00;99848.53;4971818;28;20054;-72
2020/12/31 00:23:20;;;;;;;18.50;9.20;;;;;;;4.28;100.00;99855.25;4972116;28;20073;-72
2020/12/31 00:25:48;;;;;;;17.75;8.20;;;;;;;4.38;100.00;99856.50;4969596;28;20449;-72
2020/12/31 00:28:14;;;;;;;15.70;9.35;;;;;;;4.41;100.00;99859.84;4963424;28;20039;-72
2020/12/31 00:30:40;;;;;;;16.80;9.07;;;;;;;4.46;100.00;99856.94;4967242;28;20065;-71
2020/12/31 00:33:05;;;;;;;17.38;8.70;;;;;;;4.37;100.00;99849.47;4968699;28;20083;-72
2020/12/31 00:35:31;;;;;;;19.30;9.45;;;;;;;4.33;100.00;99850.53;4950579;28;20034;-71
2020/12/31 00:37:56;;;;;;;14.32;8.77;;;;;;;4.44;100.00;99845.53;4951138;28;20061;-72
2020/12/31 00:40:22;;;;;;;18.77;9.05;;;;;;;4.29;100.00;99851.66;4967667;28;20034;-72
2020/12/31 00:42:47;;;;;;;17.58;9.40;;;;;;;4.28;100.00;99844.63;4951061;28;20065;-71
2020/12/31 00:45:13;;;;;;;19.10;10.60;;;;;;;4.22;100.00;99850.25;4964336;28;20097;-72
2020/12/31 00:47:38;;;;;;;14.18;8.23;;;;;;;4.37;100.00;99841.50;4949196;28;20057;-72
2020/12/31 00:50:04;;;;;;;17.85;9.48;;;;;;;4.22;100.00;99850.25;4935395;28;20042;-71
2020/12/31 00:52:29;;;;;;;24.52;10.13;;;;;;;4.34;100.00;99852.25;4966469;28;20034;-71
2020/12/31 00:54:55;;;;;;;17.92;10.05;;;;;;;4.37;100.00;99845.00;4951413;28;20030;-72
2020/12/31 00:57:20;;;;;;;19.75;10.57;;;;;;;4.39;100.00;99852.88;4933907;28;20022;-72
2020/12/31 00:59:46;;;;;;;18.58;10.10;;;;;;;4.33;100.00;99858.50;4963875;28;20042;-72
2020/12/31 01:02:11;;;;;;;22.48;11.98;;;;;;;4.30;100.00;99843.63;4966523;28;20052;-72
2020/12/31 01:04:37;;;;;;;19.58;10.55;;;;;;;4.47;100.00;99837.41;4951121;28;20411;-71
2020/12/31 01:07:02;;;;;;;21.95;11.43;;;;;;;4.29;100.00;99846.34;4963659;28;20039;-72
2020/12/31 01:09:28;;;;;;;22.67;10.88;;;;;;;4.24;100.00;99840.41;4968757;28;20113;-72
2020/12/31 01:11:56;;;;;;;21.55;11.88;;;;;;;4.25;100.00;99839.47;4966742;28;20122;-71
2020/12/31 01:14:22;;;;;;;19.77;11.57;;;;;;;4.23;100.00;99841.34;4934874;28;20038;-71
2020/12/31 01:16:48;;;;;;;21.58;11.57;;;;;;;4.26;100.00;99841.22;4966956;28;20541;-72
2020/12/31 01:19:14;;;;;;;22.65;12.23;;;;;;;4.25;100.00;99837.69;4969486;28;20352;-72
2020/12/31 01:21:44;;;;;;;29.10;12.35;;;;;;;4.18;100.00;99843.41;4966639;28;20050;-71
2020/12/31 01:24:09;;;;;;;20.40;10.70;;;;;;;4.19;100.00;99842.47;4970108;28;20129;-71
2020/12/31 01:26:35;;;;;;;21.95;11.68;;;;;;;4.15;100.00;99846.19;4956167;28;20117;-71
2020/12/31 01:29:02;;;;;;;19.30;10.82;;;;;;;4.19;100.00;99839.81;4967065;28;20050;-71
2020/12/31 01:31:28;;;;;;;18.83;11.18;;;;;;;4.27;100.00;99837.59;4950629;28;20031;-72
2020/12/31 01:33:54;;;;;;;20.17;10.73;;;;;;;4.24;100.00;99843.94;4971883;28;20145;-71
2020/12/31 01:36:19;;;;;;;22.27;11.32;;;;;;;4.18;100.00;99844.25;4967525;28;20043;-71
2020/12/31 01:38:46;;;;;;;20.15;10.15;;;;;;;4.37;100.00;99838.84;4967299;28;20031;-71
2020/12/31 01:41:12;;;;;;;19.73;10.95;;;;;;;4.34;100.00;99838.97;4968423;28;20062;-71
2020/12/31 01:43:37;;;;;;;18.83;10.23;;;;;;;4.29;100.00;99833.91;4965511;28;20030;-71
2020/12/31 01:46:02;;;;;;;20.92;10.90;;;;;;;4.23;100.00;99836.03;4964994;28;20407;-71
2020/12/31 01:48:28;;;;;;;20.27;10.75;;;;;;;4.41;100.00;99835.06;4966921;28;20042;-71
2020/12/31 01:50:53;;;;;;;19.10;9.57;;;;;;;4.46;100.00;99833.88;4969009;28;20350;-71
2020/12/31 01:53:20;;;;;;;17.15;9.68;;;;;;;4.42;100.00;99836.78;4967257;28;20034;-71
2020/12/31 01:55:46;;;;;;;15.90;9.23;;;;;;;4.51;100.00;99836.28;4969525;28;20097;-71
2020/12/31 01:58:12;;;;;;;17.65;9.45;;;;;;;4.51;100.00;99830.09;4968660;28;20547;-71
2020/12/31 02:00:37;;;;;;;21.70;10.38;;;;;;;4.38;100.00;99829.94;4968219;28;20415;-71
2020/12/31 02:03:03;;;;;;;18.20;9.48;;;;;;;4.46;100.00;99827.72;4950511;28;20051;-71
2020/12/31 02:05:29;;;;;;;18.23;9.25;;;;;;;4.41;100.00;99829.75;4953927;28;20038;-71
2020/12/31 02:07:54;;;;;;;15.63;9.10;;;;;;;4.40;100.00;99831.53;4966090;28;20046;-71
2020/12/31 02:10:20;;;;;;;19.90;9.32;;;;;;;4.37;100.00;99836.19;4968001;28;20031;-71
2020/12/31 02:12:45;;;;;;;18.13;9.38;;;;;;;4.28;100.00;99826.88;4969928;28;20074;-71
2020/12/31 02:15:17;;;;;;;20.88;9.73;;;;;;;4.26;100.00;99838.56;4970504;28;20125;-71
2020/12/31 02:17:44;;;;;;;18.33;10.17;;;;;;;4.26;100.00;99830.59;4968092;28;20065;-71
2020/12/31 02:20:13;;;;;;;16.30;8.57;;;;;;;4.21;100.00;99825.50;4954564;28;20038;-71
2020/12/31 02:22:39;;;;;;;17.15;9.18;;;;;;;4.31;100.00;99831.19;4970279;28;20053;-71
2020/12/31 02:25:05;;;;;;;19.50;10.07;;;;;;;4.32;100.00;99832.91;4968112;28;20758;-71
2020/12/31 02:27:30;;;;;;;15.85;9.15;;;;;;;4.43;100.00;99834.06;4971534;28;20034;-71
2020/12/31 02:29:55;;;;;;;14.23;8.10;;;;;;;4.50;100.00;99829.28;4971110;28;20043;-71
2020/12/31 02:32:21;;;;;;;17.45;9.15;;;;;;;4.46;100.00;99827.72;4970876;28;20506;-71
2020/12/31 02:34:46;;;;;;;15.65;8.60;;;;;;;4.43;100.00;99827.88;4953255;28;20495;-71
2020/12/31 02:37:12;;;;;;;17.02;8.63;;;;;;;4.30;100.00;99825.03;4971200;28;20101;-71
2020/12/31 02:39:37;;;;;;;15.68;8.40;;;;;;;4.50;100.00;99829.28;4969799;28;20037;-71
2020/12/31 02:42:03;;;;;;;17.40;9.00;;;;;;;4.42;100.00;99826.16;4969663;28;20558;-71
2020/12/31 02:44:28;;;;;;;16.33;8.25;;;;;;;4.49;100.00;99819.59;4955875;28;20027;-71
2020/12/31 02:46:53;;;;;;;11.95;7.43;;;;;;;4.52;100.00;99827.38;4970551;28;20042;-71
2020/12/31 02:49:19;;;;;;;14.68;8.43;;;;;;;4.38;100.00;99820.13;4972793;28;20069;-71
2020/12/31 02:51:45;;;;;;;17.75;8.50;;;;;;;4.38;100.00;99819.31;4956161;28;20056;-71
2020/12/31 02:54:11;;;;;;;12.55;7.70;;;;;;;4.29;100.00;99814.47;4971441;28;20039;-71
2020/12/31 02:56:36;;;;;;;12.82;7.20;;;;;;;4.34;100.00;99823.03;4969999;28;20031;-71
2020/12/31 02:59:01;;;;;;;17.02;7.85;;;;;;;4.34;100.00;99815.06;4970373;28;20039;-71
2020/12/31 03:01:28;;;;;;;10.43;6.55;;;;;;;4.43;100.00;99817.25;4970449;28;20039;-71
2020/12/31 03:03:53;;;;;;;14.23;6.07;;;;;;;4.32;100.00;99809.84;4953520;28;21431;-71
2020/12/31 03:06:19;;;;;;;11.13;6.60;;;;;;;4.39;100.00;99805.06;4965672;28;21348;-71
2020/12/31 03:08:45;;;;;;;10.90;5.38;;;;;;;4.50;100.00;99802.72;4970637;28;20137;-71
2020/12/31 03:11:17;;;;;;;10.40;5.50;;;;;;;4.49;100.00;99806.28;4968259;28;20035;-71
2020/12/31 03:13:43;;;;;;;10.85;5.20;;;;;;;4.50;100.00;99801.84;4969683;28;20117;-71
2020/12/31 03:16:08;;;;;;;7.85;5.05;;;;;;;4.47;100.00;99800.19;4953120;28;20110;-71
2020/12/31 03:18:34;;;;;;;9.80;5.50;;;;;;;4.43;100.00;99796.00;4969048;28;20491;-71
2020/12/31 03:20:59;;;;;;;10.40;5.00;;;;;;;4.32;100.00;99801.03;4971157;28;20491;-71
2020/12/31 03:23:24;;;;;;;8.15;4.80;;;;;;;4.36;100.00;99800.78;4952654;28;20034;-71
2020/12/31 03:25:50;;;;;;;7.95;4.00;;;;;;;4.43;100.00;99803.97;4952984;28;20047;-71
2020/12/31 03:28:16;;;;;;;7.45;3.78;;;;;;;4.36;100.00;99799.94;4968994;28;20042;-72
2020/12/31 03:30:43;;;;;;;5.95;3.50;;;;;;;4.36;100.00;99803.44;4952433;28;20031;-71
2020/12/31 03:33:12;;;;;;;6.30;4.10;;;;;;;4.35;100.00;99803.50;4968736;28;20109;-71
2020/12/31 03:35:40;;;;;;;5.18;3.25;;;;;;;4.28;100.00;99802.13;4953076;28;20078;-71
2020/12/31 03:38:05;;;;;;;8.10;3.58;;;;;;;4.39;100.00;99800.59;4968108;28;20379;-72
2020/12/31 03:40:31;;;;;;;5.95;3.70;;;;;;;4.30;100.00;99802.91;4953542;28;20061;-72
2020/12/31 03:42:56;;;;;;;5.35;3.58;;;;;;;4.37;100.00;99799.00;4969847;28;20123;-71
2020/12/31 03:45:21;;;;;;;5.35;3.42;;;;;;;4.23;100.00;99793.53;4951860;28;20126;-72
2020/12/31 03:47:47;;;;;;;4.72;3.30;;;;;;;4.42;100.00;99800.47;4952140;28;20035;-72
2020/12/31 03:50:12;;;;;;;4.30;3.13;;;;;;;4.29;100.00;99791.41;4969407;28;20149;-71
2020/12/31 03:52:38;;;;;;;6.10;3.33;;;;;;;4.32;100.00;99787.75;4968425;28;20030;-72
2020/12/31 03:55:03;;;;;;;5.57;2.95;;;;;;;4.39;100.00;99789.13;4969568;28;20586;-72
2020/12/31 03:57:28;;;;;;;5.85;3.08;;;;;;;4.28;100.00;99786.19;4969683;28;20097;-72
2020/12/31 03:59:54;;;;;;;7.53;3.10;;;;;;;4.16;100.00;99781.53;4939127;28;20091;-72
2020/12/31 04:02:19;;;;;;;6.65;3.35;;;;;;;4.07;100.00;99781.06;4976576;28;20521;-72
2020/12/31 04:04:45;;;;;;;4.57;2.90;;;;;;;4.11;100.00;99767.63;4971601;28;20062;-72
2020/12/31 04:07:10;;;;;;;6.45;3.33;;;;;;;4.06;100.00;99768.75;4973222;28;20036;-72
2020/12/31 04:09:35;;;;;;;5.18;2.97;;;;;;;4.02;100.00;99769.81;4952626;28;20069;-72
2020/12/31 04:12:01;;;;;;;4.72;3.10;;;;;;;4.02;100.00;99769.81;4951650;28;20046;-72
2020/12/31 04:14:27;;;;;;;6.03;3.83;;;;;;;4.03;100.00;99755.63;4952612;28;20030;-72
2020/12/31 04:16:52;;;;;;;5.43;3.40;;;;;;;4.01;100.00;99761.97;4973700;28;20725;-72
2020/12/31 04:19:18;;;;;;;4.90;3.33;;;;;;;4.00;100.00;99755.81;4969766;28;20089;-72
2020/12/31 04:21:43;;;;;;;4.88;3.13;;;;;;;4.02;100.00;99753.03;4969430;28;20799;-72
2020/12/31 04:24:08;;;;;;;4.78;2.67;;;;;;;4.02;100.00;99751.25;4953217;28;20031;-72
2020/12/31 04:26:34;;;;;;;3.42;2.45;;;;;;;4.10;100.00;99755.28;4965794;28;20534;-73
2020/12/31 04:28:59;;;;;;;5.90;3.33;;;;;;;3.96;100.00;99740.94;4969104;28;20483;-72
2020/12/31 04:31:25;;;;;;;4.75;3.30;;;;;;;4.07;100.00;99743.88;4969330;28;20118;-72
2020/12/31 04:33:50;;;;;;;4.15;2.63;;;;;;;4.06;100.00;99744.84;4969019;28;20043;-72
2020/12/31 04:36:17;;;;;;;4.05;2.30;;;;;;;4.15;100.00;99737.31;4968666;28;20027;-72
2020/12/31 04:38:42;;;;;;;3.83;2.40;;;;;;;4.10;100.00;99734.06;4951979;28;20097;-72
2020/12/31 04:41:08;;;;;;;3.70;2.58;;;;;;;4.06;100.00;99733.38;4968851;28;20043;-72
2020/12/31 04:43:35;;;;;;;3.30;2.03;;;;;;;3.94;100.00;99732.22;4968574;28;20132;-72
2020/12/31 04:46:05;;;;;;;5.50;2.40;;;;;;;3.91;100.00;99729.72;4958189;28;20047;-72
2020/12/31 04:48:39;;;;;;;3.47;2.17;;;;;;;3.99;100.00;99722.22;4968679;28;20031;-72
2020/12/31 04:51:10;;;;;;;3.20;2.25;;;;;;;3.88;100.00;99740.50;4969219;28;20116;-71
2020/12/31 04:53:37;;;;;;;4.53;2.40;;;;;;;3.85;100.00;99730.03;4969157;28;20037;-72
2020/12/31 04:56:05;;;;;;;3.42;2.10;;;;;;;3.82;100.00;99724.91;4967649;28;20026;-71
2020/12/31 04:58:30;;;;;;;3.28;2.13;;;;;;;3.83;100.00;99726.59;4952283;28;20415;-72
2020/12/31 05:00:56;;;;;;;6.57;2.08;;;;;;;3.86;100.00;99726.47;4969464;28;20031;-72
2020/12/31 05:03:21;;;;;;;4.20;2.55;;;;;;;3.81;100.00;99731.16;4967963;28;20141;-72
2020/12/31 05:05:53;;;;;;;3.55;2.33;;;;;;;3.79;100.00;99725.06;4950677;28;20042;-72
2020/12/31 05:08:18;;;;;;;3.47;2.30;;;;;;;3.78;100.00;99723.34;4968055;28;20037;-72
2020/12/31 05:10:52;;;;;;;5.32;2.47;;;;;;;3.86;100.00;99726.47;4967833;28;20038;-72
2020/12/31 05:13:17;;;;;;;5.18;2.35;;;;;;;3.98;100.00;99725.81;4966965;28;20590;-72
2020/12/31 05:15:43;;;;;;;3.70;2.45;;;;;;;3.91;100.00;99732.38;4968587;28;20039;-72
2020/12/31 05:18:18;;;;;;;3.70;2.58;;;;;;;3.99;100.00;99732.84;4950994;28;20038;-72
2020/12/31 05:20:49;;;;;;;5.28;2.65;;;;;;;4.08;100.00;99728.81;4966255;28;20034;-72
2020/12/31 05:23:16;;;;;;;3.60;2.20;;;;;;;4.01;100.00;99730.13;4967973;28;20043;-72
2020/12/31 05:25:42;;;;;;;3.60;2.10;;;;;;;3.89;100.00;99726.28;4952328;28;20511;-72
2020/12/31 05:28:34;;;;;;;3.88;1.98;;;;;;;3.93;100.00;99738.47;4967810;28;20045;-72
2020/12/31 05:31:01;;;;;;;4.70;2.25;;;;;;;3.84;100.00;99732.78;4970973;28;20085;-72
2020/12/31 05:33:30;;;;;;;2.42;1.67;;;;;;;3.81;100.00;99733.81;4969633;28;20134;-72
2020/12/31 05:36:11;;;;;;;2.92;2.08;;;;;;;3.84;100.00;99738.94;4967202;28;20053;-72
2020/12/31 05:38:36;;;;;;;3.88;2.40;;;;;;;3.85;100.00;99735.34;4968152;28;20499;-72
2020/12/31 05:41:02;;;;;;;3.47;2.13;;;;;;;3.85;100.00;99735.34;4962250;28;20030;-72
2020/12/31 05:43:28;;;;;;;3.15;1.65;;;;;;;3.85;100.00;99730.03;4967737;28;20093;-72
2020/12/31 05:46:23;;;;;;;2.55;1.60;;;;;;;3.69;100.00;99729.16;4954261;28;20050;-72
2020/12/31 05:48:57;;;;;;;2.90;1.73;;;;;;;3.73;100.00;99729.81;4952223;28;20050;-72
2020/12/31 05:51:30;;;;;;;2.25;1.52;;;;;;;3.67;100.00;99731.00;4967056;28;20122;-71
2020/12/31 05:54:16;;;;;;;2.85;1.85;;;;;;;3.69;100.00;99720.31;4953869;28;20062;-72
2020/12/31 05:56:43;;;;;;;2.25;1.48;;;;;;;3.74;100.00;99731.53;4956902;28;20550;-72
2020/12/31 05:59:25;;;;;;;2.33;1.50;;;;;;;3.64;100.00;99725.88;4956388;28;20053;-72
2020/12/31 06:01:56;;;;;;;2.90;1.65;;;;;;;3.65;100.00;99722.25;4971370;28;20093;-72
2020/12/31 06:04:46;;;;;;;4.68;2.17;;;;;;;3.75;100.00;99717.34;4971668;28;20041;-72
2020/12/31 06:07:29;;;;;;;5.05;2.60;;;;;;;3.78;100.00;99723.34;4962775;28;20042;-72
2020/12/31 06:10:01;;;;;;;;;;;;;;;3.81;100.00;99722.34;4973513;28;20430;-72
2020/12/31 06:12:36;;;;;;;5.40;2.40;;;;;;;3.73;100.00;99717.41;4971983;28;19914;-72
2020/12/31 06:15:08;;;;;;;4.78;2.58;;;;;;;3.70;100.00;99714.09;4958232;28;20090;-71
2020/12/31 06:17:46;;;;;;;3.97;2.65;;;;;;;3.70;100.00;99720.25;4964353;28;20043;-72
2020/12/31 06:20:19;;;;;;;5.25;3.30;;;;;;;3.68;100.00;99716.81;4965634;28;20459;-72
2020/12/31 06:22:57;;;;;;;6.53;3.70;;;;;;;3.66;100.00;99724.84;4972062;28;20097;-72
2020/12/31 06:25:33;;;;;;;5.80;3.60;;;;;;;3.73;100.00;99725.38;4955967;28;20038;-72
2020/12/31 06:28:07;;;;;;;8.07;4.07;;;;;;;3.73;100.00;99724.53;4970037;28;20372;-72
2020/12/31 06:30:33;;;;;;;7.40;4.25;;;;;;;3.70;100.00;99727.34;4969671;28;20399;-72
2020/12/31 06:33:26;;;;;;;7.70;4.57;;;;;;;3.73;100.00;99724.53;4972757;28;20109;-72
2020/12/31 06:36:00;;;;;;;9.95;4.70;;;;;;;3.71;100.00;99719.28;4973024;28;20466;-72
2020/12/31 06:38:28;;;;;;;6.85;4.63;;;;;;;3.75;100.00;99725.31;4970278;28;20034;-72
2020/12/31 06:40:53;;;;;;;8.70;4.82;;;;;;;3.89;100.00;99720.97;4953776;28;20593;-72
2020/12/31 06:43:19;;;;;;;7.22;4.35;;;;;;;3.86;100.00;99720.28;4968762;28;20067;-72
2020/12/31 06:45:48;;;;;;;6.22;4.00;;;;;;;3.77;100.00;99716.31;4972306;28;20097;-72
2020/12/31 06:48:25;;;;;;;7.57;4.18;;;;;;;3.73;100.00;99724.53;4968887;28;20034;-72
2020/12/31 06:50:57;;;;;;;6.38;3.67;;;;;;;3.79;100.00;99717.09;4971013;28;20034;-72
2020/12/31 06:53:29;;;;;;;5.60;3.50;;;;;;;3.69;100.00;99718.53;4968121;28;20039;-72
2020/12/31 06:55:55;;;;;;;6.57;3.78;;;;;;;3.71;100.00;99716.63;4956048;28;20065;-72
2020/12/31 06:58:24;;;;;;;6.88;3.58;;;;;;;3.65;100.00;99714.28;4973725;28;20066;-72
2020/12/31 07:00:53;;;;;;;7.15;4.05;;;;;;;3.66;100.00;99714.22;4958804;28;20084;-72
2020/12/31 07:03:40;;;;;;;6.63;3.90;;;;;;;3.76;100.00;99717.28;4978218;28;20039;-72
2020/12/31 07:06:26;;;;;;;7.88;4.07;;;;;;;3.65;100.00;99716.94;4953548;28;20082;-72
2020/12/31 07:08:57;;;;;;;10.27;4.25;;;;;;;3.80;100.00;99716.16;4968665;28;20129;-72
2020/12/31 07:11:40;;;;;;;8.15;4.85;;;;;;;3.62;100.00;99711.81;4952885;28;20129;-72
2020/12/31 07:14:18;;;;;;;6.88;4.50;;;;;;;3.67;100.00;99721.25;4971524;28;20035;-72
2020/12/31 07:17:06;;;;;;;9.77;5.40;;;;;;;3.64;100.00;99715.25;4952150;28;20129;-71
2020/12/31 07:19:42;;;;;;;7.45;4.07;;;;;;;3.72;100.00;99717.50;4953429;28;20041;-71
2020/12/31 07:22:10;;;;;;;7.63;4.65;;;;;;;3.65;100.00;99715.16;4970777;28;20038;-72
2020/12/31 07:24:54;;;;;;;7.47;4.20;;;;;;;3.69;100.00;99723.84;4952712;28;20116;-72
2020/12/31 07:27:37;;;;;;;9.43;4.97;;;;;;;3.65;100.00;99716.94;4969728;28;20061;-72
2020/12/31 07:30:21;;;;;;;;;;;;;;;3.70;100.00;99714.09;4952339;28;20042;-72
2020/12/31 07:33:01;;;;;;;8.73;5.07;;;;;;;3.60;100.00;99713.69;4952937;28;19925;-71
2020/12/31 07:35:34;;;;;;;11.52;4.50;;;;;;;3.69;100.00;99720.31;4964516;28;20034;-71
2020/12/31 07:38:02;;;;;;;7.28;4.18;;;;;;;3.64;100.00;99726.69;4968530;28;20703;-72
2020/12/31 07:40:34;;;;;;;6.88;4.53;;;;;;;3.67;100.00;99725.69;4969131;28;20818;-72
2020/12/31 07:43:00;;;;;;;9.48;4.68;;;;;;;3.72;100.00;99715.69;4958375;28;20038;-72
2020/12/31 07:45:28;;;;;;;6.50;4.10;;;;;;;3.70;100.00;99722.91;4969278;28;20125;-72
2020/12/31 07:47:54;;;;;;;7.78;4.70;;;;;;;3.70;100.00;99714.09;4953128;28;20500;-71
2020/12/31 07:50:21;;;;;;;9.63;4.97;;;;;;;3.63;100.00;99718.84;4971704;28;20057;-71
2020/12/31 07:52:47;;;;;;;10.57;5.13;;;;;;;3.65;100.00;99717.81;4969179;28;20035;-71
2020/12/31 07:55:13;;;;;;;9.05;5.15;;;;;;;3.58;100.00;99720.88;4970158;28;20518;-72
2020/12/31 07:57:39;;;;;;;9.40;5.40;;;;;;;3.55;100.00;99721.03;4968883;28;20041;-71
2020/12/31 08:00:15;;;;;;;11.02;5.72;;;;;;;3.63;100.00;99718.84;4950719;28;20129;-71
2020/12/31 08:03:09;;;;;;;9.18;5.13;;;;;;;3.62;100.00;99717.13;4968503;28;20034;-71
2020/12/31 08:05:36;;;;;;;9.27;5.47;;;;;;;3.59;100.00;99711.97;4968446;28;20050;-71
2020/12/31 08:08:01;;;;;;;9.27;5.20;;;;;;;3.56;100.00;99706.84;4967748;28;20027;-71
2020/12/31 08:10:31;;;;;;;15.38;5.03;;;;;;;3.65;100.00;99712.50;4952119;28;20038;-71
2020/12/31 08:12:59;;;;;;;8.93;5.03;;;;;;;3.64;100.00;99712.59;4952564;28;20042;-71
2020/12/31 08:15:25;;;;;;;10.52;5.47;;;;;;;3.71;100.00;99716.63;4970196;28;20193;-71
2020/12/31 08:17:52;;;;;;;9.82;5.28;;;;;;;3.76;100.00;99709.31;4967759;28;20038;-71
2020/12/31 08:20:19;;;;;;;9.88;5.45;;;;;;;3.69;100.00;99715.88;4951578;28;20031;-71
2020/12/31 08:22:50;;;;;;;9.52;5.18;;;;;;;3.56;100.00;99712.13;4952619;28;20031;-71
2020/12/31 08:25:24;;;;;;;9.82;5.72;;;;;;;3.67;100.00;99708.00;4952306;28;20042;-71
2020/12/31 08:27:51;;;;;;;13.27;5.95;;;;;;;3.64;100.00;99702.00;4952270;28;20486;-71
2020/12/31 08:30:19;;;;;;;10.55;6.47;;;;;;;3.67;100.00;99699.16;4969026;28;20558;-72
2020/12/31 08:32:49;;;;;;;13.85;7.40;;;;;;;3.67;100.00;99712.44;4969472;28;20035;-71
2020/12/31 08:35:23;;;;;;;12.60;8.27;;;;;;;3.70;100.00;99709.63;4952356;28;20168;-71
2020/12/31 08:38:25;;;;;;;13.15;7.65;;;;;;;3.69;100.00;99715.88;4951902;28;20377;-71
2020/12/31 08:40:58;;;;;;;14.48;8.65;;;;;;;3.71;100.00;99718.44;4969019;28;20043;-71
2020/12/31 08:43:31;;;;;;;18.52;9.73;;;;;;;3.68;100.00;99722.13;4952133;28;20043;-71
2020/12/31 08:45:57;;;;;;;;;;;;;;;3.71;100.00;99708.66;4950250;28;20039;-71
2020/12/31 08:48:52;;;;;;;25.35;11.52;;;;;;;3.61;100.00;99710.09;4953321;28;19940;-71
2020/12/31 08:51:18;;;;;;;19.83;10.70;;;;;;;3.69;100.00;99707.06;4952217;28;20050;-71
2020/12/31 08:53:52;;;;;;;19.30;11.82;;;;;;;3.64;100.00;99699.34;4969093;28;20074;-71
2020/12/31 08:56:19;;;;;;;19.38;10.85;;;;;;;3.75;100.00;99704.94;4951534;28;20619;-71
2020/12/31 08:58:45;;;;;;;21.98;12.50;;;;;;;3.77;100.00;99707.50;4951336;28;20125;-72
2020/12/31 09:01:27;;;;;;;21.77;11.20;;;;;;;3.76;100.00;99714.63;4950373;28;20125;-72
2020/12/31 09:04:16;;;;;;;24.60;11.90;;;;;;;3.79;100.00;99708.28;4968920;28;20062;-72
2020/12/31 09:06:42;;;;;;;21.10;12.02;;;;;;;3.71;100.00;99700.72;4967758;28;20038;-72
2020/12/31 09:09:18;;;;;;;20.85;10.80;;;;;;;3.75;100.00;99707.59;4948724;28;20510;-71
2020/12/31 09:12:14;;;;;;;18.17;11.43;;;;;;;3.79;100.00;99709.13;4948217;28;20039;-71
2020/12/31 09:14:56;;;;;;;21.60;12.82;;;;;;;3.84;100.00;99707.09;4938551;28;20491;-71
2020/12/31 09:17:25;;;;;;;20.02;10.60;;;;;;;3.85;100.00;99707.94;4968052;28;20042;-71
2020/12/31 09:19:55;;;;;;;20.13;11.18;;;;;;;3.79;100.00;99718.88;4954236;28;20035;-71
2020/12/31 09:22:21;;;;;;;18.77;11.25;;;;;;;3.77;100.00;99707.50;4949518;28;20039;-71
2020/12/31 09:24:46;;;;;;;19.20;10.73;;;;;;;3.86;100.00;99702.56;4969286;28;20022;-72
2020/12/31 09:27:22;;;;;;;19.58;10.95;;;;;;;3.78;100.00;99711.88;4969777;28;20039;-72
2020/12/31 09:30:04;;;;;;;24.30;11.70;;;;;;;3.76;100.00;99717.28;4970356;28;20035;-71
2020/12/31 09:32:30;;;;;;;17.45;11.68;;;;;;;3.84;100.00;99716.84;4973328;28;20030;-71
2020/12/31 09:34:55;;;;;;;21.70;13.00;;;;;;;3.81;100.00;99723.19;4955739;28;20411;-71
2020/12/31 09:37:21;;;;;;;21.73;12.13;;;;;;;3.80;100.00;99710.84;4973277;28;20418;-71
2020/12/31 09:39:47;;;;;;;39.50;17.20;;;;;;;3.86;100.00;99712.31;4955136;28;20035;-71
2020/12/31 09:42:13;;;;;;;27.75;13.88;;;;;;;3.84;100.00;99716.84;4956331;28;20058;-72
2020/12/31 09:44:38;;;;;;;24.20;13.85;;;;;;;3.94;100.00;99715.44;4972932;28;20060;-71
2020/12/31 09:47:07;;;;;;;19.83;11.65;;;;;;;3.91;100.00;99716.44;4955973;28;20125;-72
2020/12/31 09:49:32;;;;;;;17.35;10.52;;;;;;;3.90;100.00;99717.38;4971487;28;20066;-71
2020/12/31 09:51:59;;;;;;;22.05;12.15;;;;;;;3.95;100.00;99715.34;4965499;28;20035;-71
2020/12/31 09:54:25;;;;;;;19.80;10.73;;;;;;;3.96;100.00;99714.41;4955587;28;20446;-71
2020/12/31 09:56:50;;;;;;;21.02;11.65;;;;;;;3.94;100.00;99716.31;4970412;28;20101;-71
2020/12/31 09:59:15;;;;;;;18.02;10.50;;;;;;;4.03;100.00;99706.97;4970389;28;20810;-71
2020/12/31 10:01:41;;;;;;;24.15;13.98;;;;;;;4.01;100.00;99707.03;4972129;28;20035;-72
2020/12/31 10:04:06;;;;;;;23.40;12.50;;;;;;;4.07;100.00;99701.41;4977352;28;20039;-71
2020/12/31 10:06:32;;;;;;;23.40;11.82;;;;;;;4.07;100.00;99712.03;4970781;28;20106;-72
2020/12/31 10:08:57;;;;;;;23.40;11.73;;;;;;;4.17;100.00;99703.56;4972424;28;20062;-71
2020/12/31 10:11:23;;;;;;;26.05;13.95;;;;;;;4.23;100.00;99708.56;4972055;28;20116;-71
2020/12/31 10:13:48;;;;;;;22.48;12.60;;;;;;;4.21;100.00;99705.13;4972979;28;20022;-71
2020/12/31 10:16:13;;;;;;;21.00;12.18;;;;;;;4.19;100.00;99701.72;4972128;28;20443;-71
2020/12/31 10:18:39;;;;;;;23.58;12.98;;;;;;;4.25;100.00;99701.38;4972685;28;20062;-72
2020/12/31 10:21:05;;;;;;;23.25;12.35;;;;;;;4.27;100.00;99699.47;4970596;28;20031;-71
2020/12/31 10:23:30;;;;;;;24.08;13.40;;;;;;;4.26;100.00;99703.91;4971092;28;20027;-71
2020/12/31 10:25:56;;;;;;;24.90;14.40;;;;;;;4.23;100.00;99716.53;4971756;28;20480;-71
2020/12/31 10:28:22;;;;;;;27.10;13.75;;;;;;;4.33;100.00;99704.44;4971395;28;20038;-71
2020/12/31 10:30:48;;;;;;;27.55;15.60;;;;;;;4.26;100.00;99711.88;4970259;28;20506;-71
2020/12/31 10:33:13;;;;;;;26.13;13.60;;;;;;;4.18;100.00;99699.97;4953486;28;20050;-71
2020/12/31 10:35:39;;;;;;;23.10;13.05;;;;;;;4.23;100.00;99703.25;4954724;28;20035;-72
2020/12/31 10:38:05;;;;;;;23.67;12.02;;;;;;;4.31;100.00;99698.38;4970149;28;20073;-71
2020/12/31 10:40:30;;;;;;;21.00;12.02;;;;;;;4.28;100.00;99695.88;4972924;28;20038;-71
2020/12/31 10:42:55;;;;;;;20.95;11.85;;;;;;;4.32;100.00;99700.09;4970617;28;20676;-71
2020/12/31 10:45:21;;;;;;;17.95;10.65;;;;;;;4.26;100.00;99690.63;4972772;28;20671;-71
2020/12/31 10:47:46;;;;;;;20.65;11.30;;;;;;;4.32;100.00;99686.81;4969720;28;20085;-71
2020/12/31 10:50:11;;;;;;;29.00;15.25;;;;;;;4.29;100.00;99693.16;4971064;28;20562;-71
2020/12/31 10:52:37;;;;;;;20.23;10.93;;;;;;;4.24;100.00;99684.56;4966037;28;20190;-71
2020/12/31 10:55:03;;;;;;;20.25;9.93;;;;;;;4.31;100.00;99685.97;4952627;28;20031;-71
2020/12/31 10:57:28;;;;;;;19.08;11.43;;;;;;;4.35;100.00;99686.63;4969747;28;20038;-71
2020/12/31 10:59:54;;;;;;;19.92;10.93;;;;;;;4.35;100.00;99686.63;4969858;28;20062;-71
2020/12/31 11:02:20;;;;;;;18.65;10.55;;;;;;;4.34;100.00;99687.56;4970354;28;20054;-71
2020/12/31 11:04:45;;;;;;;20.30;10.57;;;;;;;4.42;100.00;99683.56;4954362;28;20085;-71
2020/12/31 11:07:11;;;;;;;19.75;10.95;;;;;;;4.32;100.00;99682.34;4971525;28;20061;-71
2020/12/31 11:09:36;;;;;;;19.67;11.13;;;;;;;4.35;100.00;99686.63;4968757;28;20026;-71
2020/12/31 11:12:02;;;;;;;25.25;14.13;;;;;;;4.29;100.00;99682.50;4954244;28;20038;-71
2020/12/31 11:14:27;;;;;;;17.73;9.20;;;;;;;4.36;100.00;99683.03;4954208;28;20034;-71
2020/12/31 11:16:53;;;;;;;14.02;9.25;;;;;;;4.25;100.00;99680.13;4970116;28;20549;-71
2020/12/31 11:19:19;;;;;;;14.80;9.77;;;;;;;4.25;100.00;99686.28;4953492;28;20039;-71
2020/12/31 11:21:45;;;;;;;11.65;7.47;;;;;;;4.27;100.00;99686.19;4953254;28;20031;-71
2020/12/31 11:24:11;;;;;;;11.38;7.57;;;;;;;4.42;100.00;99686.22;4970628;28;20022;-71
2020/12/31 11:26:36;;;;;;;12.50;7.80;;;;;;;4.41;100.00;99680.97;4970750;28;20034;-71
2020/12/31 11:29:02;;;;;;;11.10;6.65;;;;;;;4.44;100.00;99680.81;4970727;28;20039;-71
2020/12/31 11:31:30;;;;;;;12.25;6.78;;;;;;;4.45;100.00;99677.19;4969054;28;20095;-71
2020/12/31 11:33:56;;;;;;;10.38;5.93;;;;;;;4.46;100.00;99684.22;4955425;28;20159;-71